sensor_id;sensor_type;location;lat;lon;timestamp;P1;durP1;ratioP1;P2;durP2;ratioP2
3331;SDS011;1678;50.94845400;5.30809100;2022-09-21T00:01:11;13.33;;;9.47;;
3331;SDS011;1678;50.94845400;5.30809100;2022-09-21T00:03:41;10.40;;;8.70;;
3331;SDS011;1678;50.94845400;5.30809100;2022-09-21T00:06:11;11.00;;;7.67;;
3331;SDS011;1678;50.94845400;5.30809100;2022-09-21T00:08:42;11.47;;;8.50;;
3331;SDS011;1678;50.94845400;5.30809100;2022-09-21T00:11:11;10.77;;;8.60;;
3331;SDS011;1678;50.94845400;5.30809100;2022-09-21T00:13:40;10.77;;;9.67;;
3331;SDS011;1678;50.94845400;5.30809100;2022-09-21T00:16:14;10.33;;;7.90;;
3331;SDS011;1678;50.94845400;5.30809100;2022-09-21T00:18:42;15.50;;;8.00;;
3331;SDS011;1678;50.94845400;5.30809100;2022-09-21T00:21:12;10.23;;;9.13;;
3331;SDS011;1678;50.94845400;5.30809100;2022-09-21T00:23:41;13.27;;;10.23;;
3331;SDS011;1678;50.94845400;5.30809100;2022-09-21T00:26:11;14.00;;;10.53;;
3331;SDS011;1678;50.94845400;5.30809100;2022-09-21T00:28:41;17.00;;;10.13;;
3331;SDS011;1678;50.94845400;5.30809100;2022-09-21T00:31:10;10.83;;;8.70;;
3331;SDS011;1678;50.94845400;5.30809100;2022-09-21T00:33:41;12.77;;;9.70;;
3331;SDS011;1678;50.94845400;5.30809100;2022-09-21T00:36:11;17.17;;;11.63;;
3331;SDS011;1678;50.94845400;5.30809100;2022-09-21T00:38:41;14.63;;;11.33;;
3331;SDS011;1678;50.94845400;5.30809100;2022-09-21T00:41:10;17.80;;;12.50;;
3331;SDS011;1678;50.94845400;5.30809100;2022-09-21T00:43:41;16.63;;;12.30;;
3331;SDS011;1678;50.94845400;5.30809100;2022-09-21T00:46:13;13.83;;;12.40;;
3331;SDS011;1678;50.94845400;5.30809100;2022-09-21T00:48:48;19.67;;;13.52;;
3331;SDS011;1678;50.94845400;5.30809100;2022-09-21T00:51:16;26.20;;;12.07;;
3331;SDS011;1678;50.94845400;5.30809100;2022-09-21T00:53:45;18.83;;;12.70;;
3331;SDS011;1678;50.94845400;5.30809100;2022-09-21T00:56:19;25.27;;;13.40;;
3331;SDS011;1678;50.94845400;5.30809100;2022-09-21T00:58:50;18.57;;;13.33;;
3331;SDS011;1678;50.94845400;5.30809100;2022-09-21T01:01:20;16.67;;;11.35;;
3331;SDS011;1678;50.94845400;5.30809100;2022-09-21T01:03:51;17.60;;;11.97;;
3331;SDS011;1678;50.94845400;5.30809100;2022-09-21T01:06:22;21.83;;;11.90;;
3331;SDS011;1678;50.94845400;5.30809100;2022-09-21T01:08:52;22.00;;;11.53;;
3331;SDS011;1678;50.94845400;5.30809100;2022-09-21T01:11:26;24.53;;;12.47;;
3331;SDS011;1678;50.94845400;5.30809100;2022-09-21T01:14:07;18.73;;;13.27;;
3331;SDS011;1678;50.94845400;5.30809100;2022-09-21T01:16:45;22.30;;;13.90;;
3331;SDS011;1678;50.94845400;5.30809100;2022-09-21T01:19:26;13.82;;;10.88;;
3331;SDS011;1678;50.94845400;5.30809100;2022-09-21T01:22:12;16.98;;;11.68;;
3331;SDS011;1678;50.94845400;5.30809100;2022-09-21T01:24:49;15.30;;;11.87;;
3331;SDS011;1678;50.94845400;5.30809100;2022-09-21T01:27:34;15.53;;;10.60;;
3331;SDS011;1678;50.94845400;5.30809100;2022-09-21T01:30:14;21.53;;;12.20;;
3331;SDS011;1678;50.94845400;5.30809100;2022-09-21T01:32:46;12.93;;;10.83;;
3331;SDS011;1678;50.94845400;5.30809100;2022-09-21T01:35:20;12.73;;;11.43;;
3331;SDS011;1678;50.94845400;5.30809100;2022-09-21T01:37:53;19.60;;;11.00;;
3331;SDS011;1678;50.94845400;5.30809100;2022-09-21T01:40:26;16.83;;;11.80;;
3331;SDS011;1678;50.94845400;5.30809100;2022-09-21T01:43:01;18.55;;;10.23;;
3331;SDS011;1678;50.94845400;5.30809100;2022-09-21T01:45:34;17.65;;;11.52;;
3331;SDS011;1678;50.94845400;5.30809100;2022-09-21T01:48:06;13.93;;;11.25;;
3331;SDS011;1678;50.94845400;5.30809100;2022-09-21T01:50:37;15.85;;;10.95;;
3331;SDS011;1678;50.94845400;5.30809100;2022-09-21T01:53:11;23.88;;;10.00;;
3331;SDS011;1678;50.94845400;5.30809100;2022-09-21T01:55:44;14.60;;;10.30;;
3331;SDS011;1678;50.94845400;5.30809100;2022-09-21T01:58:17;14.35;;;11.10;;
3331;SDS011;1678;50.94845400;5.30809100;2022-09-21T02:00:50;17.23;;;10.97;;
3331;SDS011;1678;50.94845400;5.30809100;2022-09-21T02:03:24;14.35;;;11.05;;
3331;SDS011;1678;50.94845400;5.30809100;2022-09-21T02:05:56;13.60;;;10.43;;
3331;SDS011;1678;50.94845400;5.30809100;2022-09-21T02:08:25;12.77;;;10.32;;
3331;SDS011;1678;50.94845400;5.30809100;2022-09-21T02:10:58;16.60;;;9.43;;
3331;SDS011;1678;50.94845400;5.30809100;2022-09-21T02:13:28;13.68;;;10.63;;
3331;SDS011;1678;50.94845400;5.30809100;2022-09-21T02:16:04;11.77;;;10.15;;
3331;SDS011;1678;50.94845400;5.30809100;2022-09-21T02:18:47;12.50;;;10.30;;
3331;SDS011;1678;50.94845400;5.30809100;2022-09-21T02:21:23;21.53;;;10.93;;
3331;SDS011;1678;50.94845400;5.30809100;2022-09-21T02:23:58;19.33;;;11.10;;
3331;SDS011;1678;50.94845400;5.30809100;2022-09-21T02:26:36;37.07;;;14.27;;
3331;SDS011;1678;50.94845400;5.30809100;2022-09-21T02:29:11;28.17;;;14.57;;
3331;SDS011;1678;50.94845400;5.30809100;2022-09-21T02:31:50;22.13;;;13.83;;
3331;SDS011;1678;50.94845400;5.30809100;2022-09-21T02:34:23;56.63;;;16.13;;
3331;SDS011;1678;50.94845400;5.30809100;2022-09-21T02:37:01;61.10;;;16.93;;
3331;SDS011;1678;50.94845400;5.30809100;2022-09-21T02:39:37;26.90;;;15.00;;
3331;SDS011;1678;50.94845400;5.30809100;2022-09-21T02:42:11;42.43;;;16.57;;
3331;SDS011;1678;50.94845400;5.30809100;2022-09-21T02:44:43;18.17;;;12.30;;
3331;SDS011;1678;50.94845400;5.30809100;2022-09-21T02:47:20;35.43;;;16.03;;
3331;SDS011;1678;50.94845400;5.30809100;2022-09-21T02:49:53;35.07;;;14.00;;
3331;SDS011;1678;50.94845400;5.30809100;2022-09-21T02:52:27;18.00;;;12.07;;
3331;SDS011;1678;50.94845400;5.30809100;2022-09-21T02:54:57;22.67;;;13.73;;
3331;SDS011;1678;50.94845400;5.30809100;2022-09-21T02:57:27;30.15;;;14.00;;
3331;SDS011;1678;50.94845400;5.30809100;2022-09-21T02:59:56;34.75;;;13.75;;
3331;SDS011;1678;50.94845400;5.30809100;2022-09-21T03:02:35;18.40;;;12.73;;
3331;SDS011;1678;50.94845400;5.30809100;2022-09-21T03:05:04;15.80;;;13.05;;
3331;SDS011;1678;50.94845400;5.30809100;2022-09-21T03:07:34;65.37;;;14.50;;
3331;SDS011;1678;50.94845400;5.30809100;2022-09-21T03:10:02;26.57;;;12.53;;
3331;SDS011;1678;50.94845400;5.30809100;2022-09-21T03:12:31;71.10;;;13.20;;
3331;SDS011;1678;50.94845400;5.30809100;2022-09-21T03:14:59;58.30;;;13.80;;
3331;SDS011;1678;50.94845400;5.30809100;2022-09-21T03:17:27;29.25;;;12.18;;
3331;SDS011;1678;50.94845400;5.30809100;2022-09-21T03:19:57;54.08;;;13.95;;
3331;SDS011;1678;50.94845400;5.30809100;2022-09-21T03:22:25;28.83;;;12.67;;
3331;SDS011;1678;50.94845400;5.30809100;2022-09-21T03:24:53;29.03;;;14.40;;
3331;SDS011;1678;50.94845400;5.30809100;2022-09-21T03:27:22;24.43;;;12.63;;
3331;SDS011;1678;50.94845400;5.30809100;2022-09-21T03:29:50;21.90;;;11.73;;
3331;SDS011;1678;50.94845400;5.30809100;2022-09-21T03:32:19;19.67;;;12.20;;
3331;SDS011;1678;50.94845400;5.30809100;2022-09-21T03:34:47;20.47;;;12.27;;
3331;SDS011;1678;50.94845400;5.30809100;2022-09-21T03:37:16;24.33;;;14.60;;
3331;SDS011;1678;50.94845400;5.30809100;2022-09-21T03:39:44;24.13;;;14.10;;
3331;SDS011;1678;50.94845400;5.30809100;2022-09-21T03:42:12;25.75;;;13.05;;
3331;SDS011;1678;50.94845400;5.30809100;2022-09-21T03:44:41;20.20;;;14.85;;
3331;SDS011;1678;50.94845400;5.30809100;2022-09-21T03:47:09;17.52;;;14.30;;
3331;SDS011;1678;50.94845400;5.30809100;2022-09-21T03:49:37;18.80;;;12.70;;
3331;SDS011;1678;50.94845400;5.30809100;2022-09-21T03:52:05;25.98;;;15.07;;
3331;SDS011;1678;50.94845400;5.30809100;2022-09-21T03:54:34;27.73;;;15.20;;
3331;SDS011;1678;50.94845400;5.30809100;2022-09-21T03:57:03;22.88;;;17.10;;
3331;SDS011;1678;50.94845400;5.30809100;2022-09-21T03:59:31;26.48;;;15.75;;
3331;SDS011;1678;50.94845400;5.30809100;2022-09-21T04:02:00;25.60;;;15.60;;
3331;SDS011;1678;50.94845400;5.30809100;2022-09-21T04:04:28;28.27;;;14.98;;
3331;SDS011;1678;50.94845400;5.30809100;2022-09-21T04:06:57;21.92;;;14.38;;
3331;SDS011;1678;50.94845400;5.30809100;2022-09-21T04:09:25;26.40;;;15.60;;
3331;SDS011;1678;50.94845400;5.30809100;2022-09-21T04:11:54;22.80;;;15.13;;
3331;SDS011;1678;50.94845400;5.30809100;2022-09-21T04:14:22;23.63;;;14.17;;
3331;SDS011;1678;50.94845400;5.30809100;2022-09-21T04:16:50;24.35;;;13.88;;
3331;SDS011;1678;50.94845400;5.30809100;2022-09-21T04:19:19;39.25;;;14.75;;
3331;SDS011;1678;50.94845400;5.30809100;2022-09-21T04:21:47;30.02;;;17.50;;
3331;SDS011;1678;50.94845400;5.30809100;2022-09-21T04:24:16;24.23;;;14.55;;
3331;SDS011;1678;50.94845400;5.30809100;2022-09-21T04:26:45;21.20;;;15.75;;
3331;SDS011;1678;50.94845400;5.30809100;2022-09-21T04:29:14;23.75;;;15.85;;
3331;SDS011;1678;50.94845400;5.30809100;2022-09-21T04:31:43;17.00;;;15.23;;
3331;SDS011;1678;50.94845400;5.30809100;2022-09-21T04:34:11;16.95;;;12.32;;
3331;SDS011;1678;50.94845400;5.30809100;2022-09-21T04:36:40;22.20;;;13.77;;
3331;SDS011;1678;50.94845400;5.30809100;2022-09-21T04:39:08;13.90;;;12.50;;
3331;SDS011;1678;50.94845400;5.30809100;2022-09-21T04:41:36;21.48;;;14.18;;
3331;SDS011;1678;50.94845400;5.30809100;2022-09-21T04:44:05;30.92;;;14.27;;
3331;SDS011;1678;50.94845400;5.30809100;2022-09-21T04:46:34;20.30;;;14.60;;
3331;SDS011;1678;50.94845400;5.30809100;2022-09-21T04:49:02;21.30;;;14.00;;
3331;SDS011;1678;50.94845400;5.30809100;2022-09-21T04:51:30;22.02;;;13.73;;
3331;SDS011;1678;50.94845400;5.30809100;2022-09-21T04:53:59;16.70;;;13.30;;
3331;SDS011;1678;50.94845400;5.30809100;2022-09-21T04:56:27;18.17;;;15.38;;
3331;SDS011;1678;50.94845400;5.30809100;2022-09-21T04:58:56;16.37;;;13.47;;
3331;SDS011;1678;50.94845400;5.30809100;2022-09-21T05:01:24;15.57;;;12.45;;
3331;SDS011;1678;50.94845400;5.30809100;2022-09-21T05:03:54;18.10;;;12.80;;
3331;SDS011;1678;50.94845400;5.30809100;2022-09-21T05:06:26;18.08;;;13.13;;
3331;SDS011;1678;50.94845400;5.30809100;2022-09-21T05:08:55;16.27;;;11.60;;
3331;SDS011;1678;50.94845400;5.30809100;2022-09-21T05:11:41;18.02;;;12.27;;
3331;SDS011;1678;50.94845400;5.30809100;2022-09-21T05:14:09;14.33;;;11.77;;
3331;SDS011;1678;50.94845400;5.30809100;2022-09-21T05:16:37;12.95;;;10.60;;
3331;SDS011;1678;50.94845400;5.30809100;2022-09-21T05:19:07;15.73;;;13.60;;
3331;SDS011;1678;50.94845400;5.30809100;2022-09-21T05:21:35;15.90;;;12.38;;
3331;SDS011;1678;50.94845400;5.30809100;2022-09-21T05:24:03;14.90;;;11.70;;
3331;SDS011;1678;50.94845400;5.30809100;2022-09-21T05:26:32;22.58;;;13.75;;
3331;SDS011;1678;50.94845400;5.30809100;2022-09-21T05:29:00;13.50;;;12.10;;
3331;SDS011;1678;50.94845400;5.30809100;2022-09-21T05:31:34;14.87;;;11.40;;
3331;SDS011;1678;50.94845400;5.30809100;2022-09-21T05:34:17;17.23;;;12.65;;
3331;SDS011;1678;50.94845400;5.30809100;2022-09-21T05:36:54;17.67;;;13.37;;
3331;SDS011;1678;50.94845400;5.30809100;2022-09-21T05:39:27;15.67;;;12.53;;
3331;SDS011;1678;50.94845400;5.30809100;2022-09-21T05:41:56;14.33;;;12.77;;
3331;SDS011;1678;50.94845400;5.30809100;2022-09-21T05:44:24;15.13;;;12.90;;
3331;SDS011;1678;50.94845400;5.30809100;2022-09-21T05:46:54;17.67;;;12.85;;
3331;SDS011;1678;50.94845400;5.30809100;2022-09-21T05:49:29;17.53;;;15.27;;
3331;SDS011;1678;50.94845400;5.30809100;2022-09-21T05:52:12;22.90;;;12.97;;
3331;SDS011;1678;50.94845400;5.30809100;2022-09-21T05:54:54;19.87;;;15.70;;
3331;SDS011;1678;50.94845400;5.30809100;2022-09-21T05:57:33;24.20;;;15.03;;
3331;SDS011;1678;50.94845400;5.30809100;2022-09-21T06:00:13;16.20;;;13.70;;
3331;SDS011;1678;50.94845400;5.30809100;2022-09-21T06:02:54;21.23;;;16.07;;
3331;SDS011;1678;50.94845400;5.30809100;2022-09-21T06:05:33;23.73;;;15.23;;
3331;SDS011;1678;50.94845400;5.30809100;2022-09-21T06:08:01;19.07;;;14.30;;
3331;SDS011;1678;50.94845400;5.30809100;2022-09-21T06:10:30;15.87;;;13.00;;
3331;SDS011;1678;50.94845400;5.30809100;2022-09-21T06:13:00;18.70;;;12.97;;
3331;SDS011;1678;50.94845400;5.30809100;2022-09-21T06:15:28;18.90;;;13.30;;
3331;SDS011;1678;50.94845400;5.30809100;2022-09-21T06:17:56;13.43;;;12.33;;
3331;SDS011;1678;50.94845400;5.30809100;2022-09-21T06:20:25;17.70;;;12.80;;
3331;SDS011;1678;50.94845400;5.30809100;2022-09-21T06:22:59;17.43;;;12.43;;
3331;SDS011;1678;50.94845400;5.30809100;2022-09-21T06:25:28;12.07;;;11.00;;
3331;SDS011;1678;50.94845400;5.30809100;2022-09-21T06:28:00;16.43;;;14.40;;
3331;SDS011;1678;50.94845400;5.30809100;2022-09-21T06:30:29;21.63;;;14.80;;
3331;SDS011;1678;50.94845400;5.30809100;2022-09-21T06:33:00;16.60;;;13.37;;
3331;SDS011;1678;50.94845400;5.30809100;2022-09-21T06:35:29;19.33;;;14.57;;
3331;SDS011;1678;50.94845400;5.30809100;2022-09-21T06:38:00;20.33;;;14.53;;
3331;SDS011;1678;50.94845400;5.30809100;2022-09-21T06:40:30;15.03;;;13.57;;
3331;SDS011;1678;50.94845400;5.30809100;2022-09-21T06:42:59;25.60;;;15.37;;
3331;SDS011;1678;50.94845400;5.30809100;2022-09-21T06:45:29;16.40;;;14.70;;
3331;SDS011;1678;50.94845400;5.30809100;2022-09-21T06:47:57;22.27;;;16.80;;
3331;SDS011;1678;50.94845400;5.30809100;2022-09-21T06:50:25;21.37;;;19.03;;
3331;SDS011;1678;50.94845400;5.30809100;2022-09-21T06:52:53;22.93;;;15.17;;
3331;SDS011;1678;50.94845400;5.30809100;2022-09-21T06:55:23;29.77;;;18.77;;
3331;SDS011;1678;50.94845400;5.30809100;2022-09-21T06:57:51;25.20;;;18.87;;
3331;SDS011;1678;50.94845400;5.30809100;2022-09-21T07:00:21;24.57;;;21.63;;
3331;SDS011;1678;50.94845400;5.30809100;2022-09-21T07:02:49;27.57;;;21.43;;
3331;SDS011;1678;50.94845400;5.30809100;2022-09-21T07:05:18;32.10;;;19.97;;
3331;SDS011;1678;50.94845400;5.30809100;2022-09-21T07:07:46;25.87;;;19.87;;
3331;SDS011;1678;50.94845400;5.30809100;2022-09-21T07:10:19;24.30;;;21.50;;
3331;SDS011;1678;50.94845400;5.30809100;2022-09-21T07:12:48;31.40;;;21.07;;
3331;SDS011;1678;50.94845400;5.30809100;2022-09-21T07:15:17;22.93;;;20.47;;
3331;SDS011;1678;50.94845400;5.30809100;2022-09-21T07:17:46;26.07;;;19.60;;
3331;SDS011;1678;50.94845400;5.30809100;2022-09-21T07:20:17;41.73;;;22.07;;
3331;SDS011;1678;50.94845400;5.30809100;2022-09-21T07:22:46;28.70;;;19.57;;
3331;SDS011;1678;50.94845400;5.30809100;2022-09-21T07:25:14;25.60;;;19.20;;
3331;SDS011;1678;50.94845400;5.30809100;2022-09-21T07:27:42;32.63;;;22.63;;
3331;SDS011;1678;50.94845400;5.30809100;2022-09-21T07:30:12;22.70;;;19.00;;
3331;SDS011;1678;50.94845400;5.30809100;2022-09-21T07:32:40;30.90;;;22.33;;
3331;SDS011;1678;50.94845400;5.30809100;2022-09-21T07:35:08;33.80;;;21.00;;
3331;SDS011;1678;50.94845400;5.30809100;2022-09-21T07:37:37;30.53;;;21.67;;
3331;SDS011;1678;50.94845400;5.30809100;2022-09-21T07:40:06;29.20;;;21.13;;
3331;SDS011;1678;50.94845400;5.30809100;2022-09-21T07:42:35;36.10;;;21.50;;
3331;SDS011;1678;50.94845400;5.30809100;2022-09-21T07:45:03;28.90;;;21.80;;
3331;SDS011;1678;50.94845400;5.30809100;2022-09-21T07:47:33;31.30;;;21.43;;
3331;SDS011;1678;50.94845400;5.30809100;2022-09-21T07:50:01;28.47;;;19.80;;
3331;SDS011;1678;50.94845400;5.30809100;2022-09-21T07:52:29;23.10;;;20.00;;
3331;SDS011;1678;50.94845400;5.30809100;2022-09-21T07:54:57;21.13;;;17.77;;
3331;SDS011;1678;50.94845400;5.30809100;2022-09-21T07:57:26;30.07;;;18.70;;
3331;SDS011;1678;50.94845400;5.30809100;2022-09-21T08:00:25;22.57;;;17.90;;
3331;SDS011;1678;50.94845400;5.30809100;2022-09-21T08:02:59;24.87;;;18.83;;
3331;SDS011;1678;50.94845400;5.30809100;2022-09-21T08:05:27;18.80;;;16.80;;
3331;SDS011;1678;50.94845400;5.30809100;2022-09-21T08:07:55;24.60;;;19.50;;
3331;SDS011;1678;50.94845400;5.30809100;2022-09-21T08:10:24;20.60;;;18.30;;
3331;SDS011;1678;50.94845400;5.30809100;2022-09-21T08:12:55;17.93;;;16.10;;
3331;SDS011;1678;50.94845400;5.30809100;2022-09-21T08:15:23;19.40;;;16.23;;
3331;SDS011;1678;50.94845400;5.30809100;2022-09-21T08:18:13;18.33;;;16.50;;
3331;SDS011;1678;50.94845400;5.30809100;2022-09-21T08:20:41;25.43;;;17.70;;
3331;SDS011;1678;50.94845400;5.30809100;2022-09-21T08:23:09;18.80;;;14.97;;
3331;SDS011;1678;50.94845400;5.30809100;2022-09-21T08:25:38;23.90;;;18.50;;
3331;SDS011;1678;50.94845400;5.30809100;2022-09-21T08:28:06;18.60;;;15.97;;
3331;SDS011;1678;50.94845400;5.30809100;2022-09-21T08:30:35;15.40;;;13.97;;
3331;SDS011;1678;50.94845400;5.30809100;2022-09-21T08:33:03;17.30;;;15.50;;
3331;SDS011;1678;50.94845400;5.30809100;2022-09-21T08:35:33;19.00;;;14.70;;
3331;SDS011;1678;50.94845400;5.30809100;2022-09-21T08:38:02;14.87;;;13.57;;
3331;SDS011;1678;50.94845400;5.30809100;2022-09-21T08:40:31;15.30;;;13.73;;
3331;SDS011;1678;50.94845400;5.30809100;2022-09-21T08:43:01;16.37;;;14.90;;
3331;SDS011;1678;50.94845400;5.30809100;2022-09-21T08:45:36;17.10;;;14.17;;
3331;SDS011;1678;50.94845400;5.30809100;2022-09-21T08:48:09;15.40;;;13.13;;
3331;SDS011;1678;50.94845400;5.30809100;2022-09-21T08:50:45;16.07;;;13.20;;
3331;SDS011;1678;50.94845400;5.30809100;2022-09-21T08:53:18;13.53;;;12.30;;
3331;SDS011;1678;50.94845400;5.30809100;2022-09-21T08:55:54;13.87;;;12.60;;
3331;SDS011;1678;50.94845400;5.30809100;2022-09-21T08:58:23;11.20;;;10.23;;
3331;SDS011;1678;50.94845400;5.30809100;2022-09-21T09:00:56;12.20;;;10.70;;
3331;SDS011;1678;50.94845400;5.30809100;2022-09-21T09:03:37;11.43;;;10.27;;
3331;SDS011;1678;50.94845400;5.30809100;2022-09-21T09:06:31;11.60;;;10.40;;
3331;SDS011;1678;50.94845400;5.30809100;2022-09-21T09:12:03;11.70;;;10.50;;
3331;SDS011;1678;50.94845400;5.30809100;2022-09-21T09:14:54;12.47;;;8.70;;
3331;SDS011;1678;50.94845400;5.30809100;2022-09-21T09:17:39;8.83;;;8.00;;
3331;SDS011;1678;50.94845400;5.30809100;2022-09-21T09:20:16;11.97;;;9.43;;
3331;SDS011;1678;50.94845400;5.30809100;2022-09-21T09:22:53;11.00;;;8.83;;
3331;SDS011;1678;50.94845400;5.30809100;2022-09-21T09:25:33;13.00;;;7.47;;
3331;SDS011;1678;50.94845400;5.30809100;2022-09-21T09:28:09;8.87;;;6.80;;
3331;SDS011;1678;50.94845400;5.30809100;2022-09-21T09:30:46;7.57;;;7.17;;
3331;SDS011;1678;50.94845400;5.30809100;2022-09-21T09:33:23;7.73;;;6.73;;
3331;SDS011;1678;50.94845400;5.30809100;2022-09-21T09:35:57;7.70;;;7.00;;
3331;SDS011;1678;50.94845400;5.30809100;2022-09-21T09:38:31;10.53;;;7.53;;
3331;SDS011;1678;50.94845400;5.30809100;2022-09-21T09:44:06;7.23;;;6.57;;
3331;SDS011;1678;50.94845400;5.30809100;2022-09-21T09:46:53;5.47;;;5.07;;
3331;SDS011;1678;50.94845400;5.30809100;2022-09-21T09:49:32;6.73;;;4.60;;
3331;SDS011;1678;50.94845400;5.30809100;2022-09-21T09:52:09;4.77;;;4.47;;
3331;SDS011;1678;50.94845400;5.30809100;2022-09-21T09:54:41;4.20;;;3.90;;
3331;SDS011;1678;50.94845400;5.30809100;2022-09-21T09:57:09;5.67;;;4.47;;
3331;SDS011;1678;50.94845400;5.30809100;2022-09-21T09:59:41;10.10;;;4.60;;
3331;SDS011;1678;50.94845400;5.30809100;2022-09-21T10:02:20;4.87;;;4.47;;
3331;SDS011;1678;50.94845400;5.30809100;2022-09-21T10:04:53;5.83;;;4.80;;
3331;SDS011;1678;50.94845400;5.30809100;2022-09-21T10:07:32;4.70;;;4.50;;
3331;SDS011;1678;50.94845400;5.30809100;2022-09-21T10:10:03;7.40;;;5.40;;
3331;SDS011;1678;50.94845400;5.30809100;2022-09-21T10:13:01;5.93;;;4.87;;
3331;SDS011;1678;50.94845400;5.30809100;2022-09-21T10:15:41;4.97;;;4.40;;
3331;SDS011;1678;50.94845400;5.30809100;2022-09-21T10:18:14;6.80;;;6.30;;
3331;SDS011;1678;50.94845400;5.30809100;2022-09-21T10:20:53;5.93;;;5.33;;
3331;SDS011;1678;50.94845400;5.30809100;2022-09-21T10:23:23;4.97;;;4.53;;
3331;SDS011;1678;50.94845400;5.30809100;2022-09-21T10:25:54;6.97;;;3.87;;
3331;SDS011;1678;50.94845400;5.30809100;2022-09-21T10:28:24;12.17;;;4.10;;
3331;SDS011;1678;50.94845400;5.30809100;2022-09-21T10:33:50;8.43;;;4.40;;
3331;SDS011;1678;50.94845400;5.30809100;2022-09-21T10:36:30;5.70;;;4.63;;
3331;SDS011;1678;50.94845400;5.30809100;2022-09-21T10:39:10;4.70;;;4.30;;
3331;SDS011;1678;50.94845400;5.30809100;2022-09-21T10:41:47;4.27;;;3.30;;
3331;SDS011;1678;50.94845400;5.30809100;2022-09-21T10:44:17;6.40;;;2.90;;
3331;SDS011;1678;50.94845400;5.30809100;2022-09-21T10:46:47;8.07;;;3.30;;
3331;SDS011;1678;50.94845400;5.30809100;2022-09-21T10:49:19;3.83;;;3.70;;
3331;SDS011;1678;50.94845400;5.30809100;2022-09-21T10:51:50;3.97;;;1.63;;
3331;SDS011;1678;50.94845400;5.30809100;2022-09-21T10:54:22;1.90;;;1.00;;
3331;SDS011;1678;50.94845400;5.30809100;2022-09-21T10:56:57;4.20;;;1.43;;
3331;SDS011;1678;50.94845400;5.30809100;2022-09-21T10:59:29;1.20;;;1.10;;
3331;SDS011;1678;50.94845400;5.30809100;2022-09-21T11:01:59;2.63;;;0.70;;
3331;SDS011;1678;50.94845400;5.30809100;2022-09-21T11:04:38;1.40;;;1.40;;
3331;SDS011;1678;50.94845400;5.30809100;2022-09-21T11:07:12;1.57;;;1.47;;
3331;SDS011;1678;50.94845400;5.30809100;2022-09-21T11:09:47;4.97;;;1.43;;
3331;SDS011;1678;50.94845400;5.30809100;2022-09-21T11:12:26;1.17;;;0.73;;
3331;SDS011;1678;50.94845400;5.30809100;2022-09-21T11:15:07;1.50;;;1.50;;
3331;SDS011;1678;50.94845400;5.30809100;2022-09-21T11:17:44;1.67;;;1.57;;
3331;SDS011;1678;50.94845400;5.30809100;2022-09-21T11:20:21;2.43;;;2.27;;
3331;SDS011;1678;50.94845400;5.30809100;2022-09-21T11:22:58;1.80;;;1.70;;
3331;SDS011;1678;50.94845400;5.30809100;2022-09-21T11:25:33;3.50;;;1.77;;
3331;SDS011;1678;50.94845400;5.30809100;2022-09-21T11:28:10;5.70;;;2.03;;
3331;SDS011;1678;50.94845400;5.30809100;2022-09-21T11:30:46;4.77;;;2.57;;
3331;SDS011;1678;50.94845400;5.30809100;2022-09-21T11:33:44;5.17;;;1.13;;
3331;SDS011;1678;50.94845400;5.30809100;2022-09-21T11:36:24;1.10;;;1.10;;
3331;SDS011;1678;50.94845400;5.30809100;2022-09-21T11:39:01;1.90;;;1.50;;
3331;SDS011;1678;50.94845400;5.30809100;2022-09-21T11:41:50;2.83;;;1.50;;
3331;SDS011;1678;50.94845400;5.30809100;2022-09-21T11:47:28;6.30;;;2.30;;
3331;SDS011;1678;50.94845400;5.30809100;2022-09-21T11:50:17;2.87;;;1.33;;
3331;SDS011;1678;50.94845400;5.30809100;2022-09-21T11:53:03;5.70;;;1.73;;
3331;SDS011;1678;50.94845400;5.30809100;2022-09-21T11:55:47;2.53;;;1.40;;
3331;SDS011;1678;50.94845400;5.30809100;2022-09-21T11:58:36;3.80;;;1.33;;
3331;SDS011;1678;50.94845400;5.30809100;2022-09-21T12:01:12;1.70;;;1.47;;
3331;SDS011;1678;50.94845400;5.30809100;2022-09-21T12:03:59;6.70;;;2.17;;
3331;SDS011;1678;50.94845400;5.30809100;2022-09-21T12:06:48;2.57;;;2.40;;
3331;SDS011;1678;50.94845400;5.30809100;2022-09-21T12:09:28;10.63;;;1.67;;
3331;SDS011;1678;50.94845400;5.30809100;2022-09-21T12:12:06;1.80;;;1.70;;
3331;SDS011;1678;50.94845400;5.30809100;2022-09-21T12:14:41;3.20;;;1.50;;
3331;SDS011;1678;50.94845400;5.30809100;2022-09-21T12:17:19;3.77;;;1.30;;
3331;SDS011;1678;50.94845400;5.30809100;2022-09-21T12:19:54;2.00;;;1.80;;
3331;SDS011;1678;50.94845400;5.30809100;2022-09-21T12:22:28;2.20;;;2.00;;
3331;SDS011;1678;50.94845400;5.30809100;2022-09-21T12:25:01;3.10;;;2.00;;
3331;SDS011;1678;50.94845400;5.30809100;2022-09-21T12:27:33;5.10;;;1.63;;
3331;SDS011;1678;50.94845400;5.30809100;2022-09-21T12:30:10;3.33;;;2.47;;
3331;SDS011;1678;50.94845400;5.30809100;2022-09-21T12:32:45;6.23;;;2.33;;
3331;SDS011;1678;50.94845400;5.30809100;2022-09-21T12:35:21;5.93;;;1.47;;
3331;SDS011;1678;50.94845400;5.30809100;2022-09-21T12:37:55;1.87;;;1.60;;
3331;SDS011;1678;50.94845400;5.30809100;2022-09-21T12:40:28;4.70;;;1.93;;
3331;SDS011;1678;50.94845400;5.30809100;2022-09-21T12:43:04;2.23;;;2.03;;
3331;SDS011;1678;50.94845400;5.30809100;2022-09-21T12:45:43;1.70;;;1.70;;
3331;SDS011;1678;50.94845400;5.30809100;2022-09-21T12:48:19;4.20;;;2.30;;
3331;SDS011;1678;50.94845400;5.30809100;2022-09-21T12:50:56;5.30;;;1.40;;
3331;SDS011;1678;50.94845400;5.30809100;2022-09-21T12:53:32;5.03;;;1.60;;
3331;SDS011;1678;50.94845400;5.30809100;2022-09-21T12:56:04;1.67;;;1.30;;
3331;SDS011;1678;50.94845400;5.30809100;2022-09-21T12:58:44;2.63;;;1.60;;
3331;SDS011;1678;50.94845400;5.30809100;2022-09-21T13:01:22;3.53;;;2.20;;
3331;SDS011;1678;50.94845400;5.30809100;2022-09-21T13:04:00;3.00;;;1.10;;
3331;SDS011;1678;50.94845400;5.30809100;2022-09-21T13:06:56;3.23;;;1.50;;
3331;SDS011;1678;50.94845400;5.30809100;2022-09-21T13:09:42;2.20;;;1.03;;
3331;SDS011;1678;50.94845400;5.30809100;2022-09-21T13:12:14;2.23;;;2.10;;
3331;SDS011;1678;50.94845400;5.30809100;2022-09-21T13:14:44;8.03;;;1.17;;
3331;SDS011;1678;50.94845400;5.30809100;2022-09-21T13:17:18;1.00;;;1.00;;
3331;SDS011;1678;50.94845400;5.30809100;2022-09-21T13:19:56;2.40;;;1.97;;
3331;SDS011;1678;50.94845400;5.30809100;2022-09-21T13:22:29;3.60;;;2.00;;
3331;SDS011;1678;50.94845400;5.30809100;2022-09-21T13:24:59;4.80;;;1.90;;
3331;SDS011;1678;50.94845400;5.30809100;2022-09-21T13:30:28;3.20;;;1.10;;
3331;SDS011;1678;50.94845400;5.30809100;2022-09-21T13:36:27;2.30;;;0.90;;
3331;SDS011;1678;50.94845400;5.30809100;2022-09-21T13:39:13;0.80;;;0.80;;
3331;SDS011;1678;50.94845400;5.30809100;2022-09-21T13:41:44;2.43;;;1.30;;
3331;SDS011;1678;50.94845400;5.30809100;2022-09-21T13:44:36;2.20;;;1.40;;
3331;SDS011;1678;50.94845400;5.30809100;2022-09-21T13:47:08;3.93;;;1.17;;